sensor_id;sensor_type;location;lat;lon;timestamp;temperature;humidity
14061;DHT22;7105;43.616;1.434;2022-12-18T00:02:15;5.20;99.90
14061;DHT22;7105;43.616;1.434;2022-12-18T00:04:41;5.30;99.90
14061;DHT22;7105;43.616;1.434;2022-12-18T00:07:07;5.40;99.90
14061;DHT22;7105;43.616;1.434;2022-12-18T00:09:32;5.40;99.90
14061;DHT22;7105;43.616;1.434;2022-12-18T00:11:58;5.60;99.90
14061;DHT22;7105;43.616;1.434;2022-12-18T00:14:24;5.70;99.90
14061;DHT22;7105;43.616;1.434;2022-12-18T00:16:49;5.80;99.90
14061;DHT22;7105;43.616;1.434;2022-12-18T00:19:15;5.80;99.90
14061;DHT22;7105;43.616;1.434;2022-12-18T00:21:42;5.80;99.90
14061;DHT22;7105;43.616;1.434;2022-12-18T00:24:08;5.90;99.90
14061;DHT22;7105;43.616;1.434;2022-12-18T00:26:35;6.00;99.90
14061;DHT22;7105;43.616;1.434;2022-12-18T00:29:05;5.90;99.90
14061;DHT22;7105;43.616;1.434;2022-12-18T00:31:33;6.00;99.90
14061;DHT22;7105;43.616;1.434;2022-12-18T00:33:59;6.00;99.90
14061;DHT22;7105;43.616;1.434;2022-12-18T00:36:30;5.90;99.90
14061;DHT22;7105;43.616;1.434;2022-12-18T00:38:57;6.00;99.90
14061;DHT22;7105;43.616;1.434;2022-12-18T00:41:24;5.90;99.90
14061;DHT22;7105;43.616;1.434;2022-12-18T00:44:10;5.80;99.90
14061;DHT22;7105;43.616;1.434;2022-12-18T00:46:37;5.70;99.90
14061;DHT22;7105;43.616;1.434;2022-12-18T00:49:03;5.70;99.90
14061;DHT22;7105;43.616;1.434;2022-12-18T00:51:29;5.70;99.90
14061;DHT22;7105;43.616;1.434;2022-12-18T00:53:54;5.70;99.90
14061;DHT22;7105;43.616;1.434;2022-12-18T00:56:20;5.60;99.90
14061;DHT22;7105;43.616;1.434;2022-12-18T00:58:47;5.60;99.90
14061;DHT22;7105;43.616;1.434;2022-12-18T01:01:13;5.70;99.90
14061;DHT22;7105;43.616;1.434;2022-12-18T01:03:39;5.60;99.90
14061;DHT22;7105;43.616;1.434;2022-12-18T01:06:09;5.70;99.90
14061;DHT22;7105;43.616;1.434;2022-12-18T01:08:36;5.70;99.90
14061;DHT22;7105;43.616;1.434;2022-12-18T01:11:07;5.60;99.90
14061;DHT22;7105;43.616;1.434;2022-12-18T01:13:33;5.60;99.90
14061;DHT22;7105;43.616;1.434;2022-12-18T01:15:59;5.70;99.90
14061;DHT22;7105;43.616;1.434;2022-12-18T01:18:25;5.60;99.90
14061;DHT22;7105;43.616;1.434;2022-12-18T01:20:50;5.70;99.90
14061;DHT22;7105;43.616;1.434;2022-12-18T01:23:16;5.60;99.90
14061;DHT22;7105;43.616;1.434;2022-12-18T01:25:42;5.50;99.90
14061;DHT22;7105;43.616;1.434;2022-12-18T01:28:07;5.40;99.90
14061;DHT22;7105;43.616;1.434;2022-12-18T01:30:33;5.40;99.90
14061;DHT22;7105;43.616;1.434;2022-12-18T01:32:59;5.30;99.90
14061;DHT22;7105;43.616;1.434;2022-12-18T01:35:24;5.20;99.90
14061;DHT22;7105;43.616;1.434;2022-12-18T01:37:54;5.20;99.90
14061;DHT22;7105;43.616;1.434;2022-12-18T01:40:20;5.20;99.90
14061;DHT22;7105;43.616;1.434;2022-12-18T01:42:51;5.20;99.90
14061;DHT22;7105;43.616;1.434;2022-12-18T01:45:25;5.10;99.90
14061;DHT22;7105;43.616;1.434;2022-12-18T01:48:01;5.10;99.90
14061;DHT22;7105;43.616;1.434;2022-12-18T01:52:59;5.00;99.90
14061;DHT22;7105;43.616;1.434;2022-12-18T01:55:29;4.90;99.90
14061;DHT22;7105;43.616;1.434;2022-12-18T01:57:58;4.90;99.90
14061;DHT22;7105;43.616;1.434;2022-12-18T02:00:25;4.80;99.90
14061;DHT22;7105;43.616;1.434;2022-12-18T02:02:52;4.80;99.90
14061;DHT22;7105;43.616;1.434;2022-12-18T02:05:35;4.80;99.90
14061;DHT22;7105;43.616;1.434;2022-12-18T02:08:12;4.80;99.90
14061;DHT22;7105;43.616;1.434;2022-12-18T02:11:34;4.90;99.90
14061;DHT22;7105;43.616;1.434;2022-12-18T02:18:50;4.90;99.90
14061;DHT22;7105;43.616;1.434;2022-12-18T02:24:35;4.90;99.90
14061;DHT22;7105;43.616;1.434;2022-12-18T02:27:09;4.80;99.90
14061;DHT22;7105;43.616;1.434;2022-12-18T02:29:48;4.80;99.90
14061;DHT22;7105;43.616;1.434;2022-12-18T02:32:20;4.80;99.90
14061;DHT22;7105;43.616;1.434;2022-12-18T02:34:48;4.80;99.90
14061;DHT22;7105;43.616;1.434;2022-12-18T02:37:18;4.80;99.90
14061;DHT22;7105;43.616;1.434;2022-12-18T02:39:46;4.80;99.90
14061;DHT22;7105;43.616;1.434;2022-12-18T02:42:13;4.70;99.90
14061;DHT22;7105;43.616;1.434;2022-12-18T02:44:47;4.70;99.90
14061;DHT22;7105;43.616;1.434;2022-12-18T02:47:15;4.70;99.90
14061;DHT22;7105;43.616;1.434;2022-12-18T02:50:07;4.60;99.90
14061;DHT22;7105;43.616;1.434;2022-12-18T02:58:30;4.60;99.90
14061;DHT22;7105;43.616;1.434;2022-12-18T03:01:03;4.60;99.90
14061;DHT22;7105;43.616;1.434;2022-12-18T03:06:29;4.60;99.90
14061;DHT22;7105;43.616;1.434;2022-12-18T03:09:02;4.60;99.90
14061;DHT22;7105;43.616;1.434;2022-12-18T03:11:31;4.60;99.90
14061;DHT22;7105;43.616;1.434;2022-12-18T03:14:20;4.70;99.90
14061;DHT22;7105;43.616;1.434;2022-12-18T03:16:49;4.60;99.90
14061;DHT22;7105;43.616;1.434;2022-12-18T03:19:19;4.60;99.90
14061;DHT22;7105;43.616;1.434;2022-12-18T03:21:49;4.60;99.90
14061;DHT22;7105;43.616;1.434;2022-12-18T03:24:16;4.60;99.90
14061;DHT22;7105;43.616;1.434;2022-12-18T03:26:46;4.60;99.90
14061;DHT22;7105;43.616;1.434;2022-12-18T03:29:36;4.50;99.90
14061;DHT22;7105;43.616;1.434;2022-12-18T03:32:09;4.50;99.90
14061;DHT22;7105;43.616;1.434;2022-12-18T03:34:37;4.50;99.90
14061;DHT22;7105;43.616;1.434;2022-12-18T03:37:05;4.50;99.90
14061;DHT22;7105;43.616;1.434;2022-12-18T03:39:31;4.50;99.90
14061;DHT22;7105;43.616;1.434;2022-12-18T03:45:41;4.50;99.90
14061;DHT22;7105;43.616;1.434;2022-12-18T03:48:04;4.40;99.90
14061;DHT22;7105;43.616;1.434;2022-12-18T03:53:41;4.40;99.90
14061;DHT22;7105;43.616;1.434;2022-12-18T03:56:09;4.40;99.90
14061;DHT22;7105;43.616;1.434;2022-12-18T03:58:37;4.40;99.90
14061;DHT22;7105;43.616;1.434;2022-12-18T04:01:05;4.40;99.90
14061;DHT22;7105;43.616;1.434;2022-12-18T04:03:34;4.40;99.90
14061;DHT22;7105;43.616;1.434;2022-12-18T04:06:02;4.40;99.90
14061;DHT22;7105;43.616;1.434;2022-12-18T04:08:28;4.30;99.90
14061;DHT22;7105;43.616;1.434;2022-12-18T04:10:54;4.20;99.90
14061;DHT22;7105;43.616;1.434;2022-12-18T04:13:33;4.20;99.90
14061;DHT22;7105;43.616;1.434;2022-12-18T04:15:59;4.20;99.90
14061;DHT22;7105;43.616;1.434;2022-12-18T04:18:25;4.20;99.90
14061;DHT22;7105;43.616;1.434;2022-12-18T04:20:51;4.10;99.90
14061;DHT22;7105;43.616;1.434;2022-12-18T04:23:16;4.10;99.90
14061;DHT22;7105;43.616;1.434;2022-12-18T04:25:42;4.10;99.90
14061;DHT22;7105;43.616;1.434;2022-12-18T04:28:08;4.10;99.90
14061;DHT22;7105;43.616;1.434;2022-12-18T04:30:33;4.10;99.90
14061;DHT22;7105;43.616;1.434;2022-12-18T04:32:59;4.10;99.90
14061;DHT22;7105;43.616;1.434;2022-12-18T04:35:25;4.10;99.90
14061;DHT22;7105;43.616;1.434;2022-12-18T04:37:50;4.10;99.90
14061;DHT22;7105;43.616;1.434;2022-12-18T04:40:16;4.10;99.90
14061;DHT22;7105;43.616;1.434;2022-12-18T04:42:42;4.00;99.90
14061;DHT22;7105;43.616;1.434;2022-12-18T04:45:08;3.90;99.90
14061;DHT22;7105;43.616;1.434;2022-12-18T04:47:34;3.80;99.90
14061;DHT22;7105;43.616;1.434;2022-12-18T04:49:59;3.70;99.90
14061;DHT22;7105;43.616;1.434;2022-12-18T04:52:25;3.60;99.90
14061;DHT22;7105;43.616;1.434;2022-12-18T04:54:51;3.60;99.90
14061;DHT22;7105;43.616;1.434;2022-12-18T04:57:16;3.60;99.90
14061;DHT22;7105;43.616;1.434;2022-12-18T04:59:43;3.50;99.90
14061;DHT22;7105;43.616;1.434;2022-12-18T05:02:09;3.40;99.90
14061;DHT22;7105;43.616;1.434;2022-12-18T05:04:35;3.40;99.90
14061;DHT22;7105;43.616;1.434;2022-12-18T05:07:00;3.20;99.90
14061;DHT22;7105;43.616;1.434;2022-12-18T05:09:26;3.20;99.90
14061;DHT22;7105;43.616;1.434;2022-12-18T05:11:52;3.10;99.90
14061;DHT22;7105;43.616;1.434;2022-12-18T05:14:18;3.00;99.90
14061;DHT22;7105;43.616;1.434;2022-12-18T05:16:43;2.90;99.90
14061;DHT22;7105;43.616;1.434;2022-12-18T05:19:09;2.90;99.90
14061;DHT22;7105;43.616;1.434;2022-12-18T05:21:34;2.80;99.90
14061;DHT22;7105;43.616;1.434;2022-12-18T05:24:00;2.90;99.90
14061;DHT22;7105;43.616;1.434;2022-12-18T05:26:26;2.80;99.90
14061;DHT22;7105;43.616;1.434;2022-12-18T05:28:51;2.70;99.90
14061;DHT22;7105;43.616;1.434;2022-12-18T05:31:17;2.60;99.90
14061;DHT22;7105;43.616;1.434;2022-12-18T05:33:43;2.40;99.90
14061;DHT22;7105;43.616;1.434;2022-12-18T05:36:09;2.40;99.90
14061;DHT22;7105;43.616;1.434;2022-12-18T05:38:37;2.40;99.90
14061;DHT22;7105;43.616;1.434;2022-12-18T05:41:03;2.30;99.90
14061;DHT22;7105;43.616;1.434;2022-12-18T05:43:30;2.30;99.90
14061;DHT22;7105;43.616;1.434;2022-12-18T05:45:55;2.30;99.90
14061;DHT22;7105;43.616;1.434;2022-12-18T05:48:22;2.30;99.90
14061;DHT22;7105;43.616;1.434;2022-12-18T05:50:49;2.30;99.90
14061;DHT22;7105;43.616;1.434;2022-12-18T05:53:18;2.30;99.90
14061;DHT22;7105;43.616;1.434;2022-12-18T05:55:45;2.30;99.90
14061;DHT22;7105;43.616;1.434;2022-12-18T05:58:12;2.20;99.90
14061;DHT22;7105;43.616;1.434;2022-12-18T06:00:42;2.20;99.90
14061;DHT22;7105;43.616;1.434;2022-12-18T06:03:09;2.20;99.90
14061;DHT22;7105;43.616;1.434;2022-12-18T06:05:44;2.20;99.90
14061;DHT22;7105;43.616;1.434;2022-12-18T06:08:11;2.20;99.90
14061;DHT22;7105;43.616;1.434;2022-12-18T06:10:37;2.30;99.90
14061;DHT22;7105;43.616;1.434;2022-12-18T06:13:03;2.20;99.90
14061;DHT22;7105;43.616;1.434;2022-12-18T06:15:29;2.30;99.90
14061;DHT22;7105;43.616;1.434;2022-12-18T06:17:54;2.20;99.90
14061;DHT22;7105;43.616;1.434;2022-12-18T06:20:20;2.20;99.90
14061;DHT22;7105;43.616;1.434;2022-12-18T06:22:46;2.20;99.90
14061;DHT22;7105;43.616;1.434;2022-12-18T06:25:12;2.30;99.90
14061;DHT22;7105;43.616;1.434;2022-12-18T06:27:37;2.30;99.90
14061;DHT22;7105;43.616;1.434;2022-12-18T06:30:04;2.30;99.90
14061;DHT22;7105;43.616;1.434;2022-12-18T06:32:29;2.20;99.90
14061;DHT22;7105;43.616;1.434;2022-12-18T06:34:56;2.20;99.90
14061;DHT22;7105;43.616;1.434;2022-12-18T06:37:22;2.20;99.90
14061;DHT22;7105;43.616;1.434;2022-12-18T06:39:51;2.20;99.90
14061;DHT22;7105;43.616;1.434;2022-12-18T06:42:17;2.20;99.90
14061;DHT22;7105;43.616;1.434;2022-12-18T06:44:43;2.10;99.90
14061;DHT22;7105;43.616;1.434;2022-12-18T06:47:09;2.20;99.90
14061;DHT22;7105;43.616;1.434;2022-12-18T06:49:34;2.20;99.90
14061;DHT22;7105;43.616;1.434;2022-12-18T06:52:00;2.10;99.90
14061;DHT22;7105;43.616;1.434;2022-12-18T06:54:26;2.10;99.90
14061;DHT22;7105;43.616;1.434;2022-12-18T06:56:51;2.10;99.90
14061;DHT22;7105;43.616;1.434;2022-12-18T06:59:17;2.00;99.90
14061;DHT22;7105;43.616;1.434;2022-12-18T07:01:43;2.10;99.90
14061;DHT22;7105;43.616;1.434;2022-12-18T07:04:08;2.00;99.90
14061;DHT22;7105;43.616;1.434;2022-12-18T07:06:34;2.00;99.90
14061;DHT22;7105;43.616;1.434;2022-12-18T07:09:00;2.10;99.90
14061;DHT22;7105;43.616;1.434;2022-12-18T07:11:25;2.10;99.90
14061;DHT22;7105;43.616;1.434;2022-12-18T07:13:52;2.10;99.90
14061;DHT22;7105;43.616;1.434;2022-12-18T07:16:19;2.10;99.90
14061;DHT22;7105;43.616;1.434;2022-12-18T07:18:46;2.10;99.90
14061;DHT22;7105;43.616;1.434;2022-12-18T07:21:17;2.10;99.90
14061;DHT22;7105;43.616;1.434;2022-12-18T07:23:43;2.20;99.90
14061;DHT22;7105;43.616;1.434;2022-12-18T07:26:12;2.20;99.90
14061;DHT22;7105;43.616;1.434;2022-12-18T07:28:39;2.20;99.90
14061;DHT22;7105;43.616;1.434;2022-12-18T07:31:07;2.20;99.90
14061;DHT22;7105;43.616;1.434;2022-12-18T07:33:34;2.20;99.90
14061;DHT22;7105;43.616;1.434;2022-12-18T07:36:01;2.20;99.90
14061;DHT22;7105;43.616;1.434;2022-12-18T07:38:26;2.30;99.90
14061;DHT22;7105;43.616;1.434;2022-12-18T07:40:52;2.40;99.90
14061;DHT22;7105;43.616;1.434;2022-12-18T07:43:18;2.40;99.90
14061;DHT22;7105;43.616;1.434;2022-12-18T07:45:43;2.40;99.90
14061;DHT22;7105;43.616;1.434;2022-12-18T07:48:09;2.40;99.90
14061;DHT22;7105;43.616;1.434;2022-12-18T07:50:35;2.50;99.90
14061;DHT22;7105;43.616;1.434;2022-12-18T07:53:01;2.50;99.90
14061;DHT22;7105;43.616;1.434;2022-12-18T07:55:32;2.50;99.90
14061;DHT22;7105;43.616;1.434;2022-12-18T07:58:01;2.60;99.90
14061;DHT22;7105;43.616;1.434;2022-12-18T08:00:27;2.60;99.90
14061;DHT22;7105;43.616;1.434;2022-12-18T08:02:53;2.60;99.90
14061;DHT22;7105;43.616;1.434;2022-12-18T08:05:19;2.70;99.90
14061;DHT22;7105;43.616;1.434;2022-12-18T08:07:46;2.70;99.90
14061;DHT22;7105;43.616;1.434;2022-12-18T08:10:12;2.90;99.90
14061;DHT22;7105;43.616;1.434;2022-12-18T08:12:38;2.90;99.90
14061;DHT22;7105;43.616;1.434;2022-12-18T08:15:04;2.90;99.90
14061;DHT22;7105;43.616;1.434;2022-12-18T08:17:30;3.10;99.90
14061;DHT22;7105;43.616;1.434;2022-12-18T08:19:55;3.20;99.90
14061;DHT22;7105;43.616;1.434;2022-12-18T08:22:21;3.10;99.90
14061;DHT22;7105;43.616;1.434;2022-12-18T08:24:47;3.10;99.90
14061;DHT22;7105;43.616;1.434;2022-12-18T08:27:12;3.30;99.90
14061;DHT22;7105;43.616;1.434;2022-12-18T08:29:38;3.30;99.90
14061;DHT22;7105;43.616;1.434;2022-12-18T08:32:04;4.50;99.90
14061;DHT22;7105;43.616;1.434;2022-12-18T08:34:30;5.60;99.90
14061;DHT22;7105;43.616;1.434;2022-12-18T08:36:55;6.50;99.90
14061;DHT22;7105;43.616;1.434;2022-12-18T08:39:21;6.30;99.90
14061;DHT22;7105;43.616;1.434;2022-12-18T08:41:46;5.60;99.90
14061;DHT22;7105;43.616;1.434;2022-12-18T08:44:32;6.00;99.90
14061;DHT22;7105;43.616;1.434;2022-12-18T08:47:07;8.20;99.90
14061;DHT22;7105;43.616;1.434;2022-12-18T08:49:33;8.90;99.90
14061;DHT22;7105;43.616;1.434;2022-12-18T08:51:59;8.20;99.90
14061;DHT22;7105;43.616;1.434;2022-12-18T08:54:27;9.40;99.90
14061;DHT22;7105;43.616;1.434;2022-12-18T08:56:52;8.60;99.90
14061;DHT22;7105;43.616;1.434;2022-12-18T08:59:19;8.20;99.90
14061;DHT22;7105;43.616;1.434;2022-12-18T09:01:45;9.10;99.90
14061;DHT22;7105;43.616;1.434;2022-12-18T09:04:12;7.90;99.90
14061;DHT22;7105;43.616;1.434;2022-12-18T09:06:37;6.10;99.90
14061;DHT22;7105;43.616;1.434;2022-12-18T09:09:04;5.70;99.90
14061;DHT22;7105;43.616;1.434;2022-12-18T09:11:31;5.60;99.90
14061;DHT22;7105;43.616;1.434;2022-12-18T09:13:58;5.60;99.90
14061;DHT22;7105;43.616;1.434;2022-12-18T09:16:26;5.70;99.90
14061;DHT22;7105;43.616;1.434;2022-12-18T09:18:54;5.70;99.90
14061;DHT22;7105;43.616;1.434;2022-12-18T09:21:26;6.00;99.90
14061;DHT22;7105;43.616;1.434;2022-12-18T09:23:53;6.70;99.90
14061;DHT22;7105;43.616;1.434;2022-12-18T09:26:20;7.10;99.90
14061;DHT22;7105;43.616;1.434;2022-12-18T09:28:47;7.70;99.90
14061;DHT22;7105;43.616;1.434;2022-12-18T09:31:13;8.10;99.90
14061;DHT22;7105;43.616;1.434;2022-12-18T09:33:39;8.30;99.90
14061;DHT22;7105;43.616;1.434;2022-12-18T09:36:07;8.40;99.90
14061;DHT22;7105;43.616;1.434;2022-12-18T09:38:34;8.50;99.90
14061;DHT22;7105;43.616;1.434;2022-12-18T09:42:21;8.60;99.90
14061;DHT22;7105;43.616;1.434;2022-12-18T09:44:30;8.80;99.90
14061;DHT22;7105;43.616;1.434;2022-12-18T09:49:44;9.00;99.90
14061;DHT22;7105;43.616;1.434;2022-12-18T09:52:26;9.10;99.90
14061;DHT22;7105;43.616;1.434;2022-12-18T09:55:03;9.20;99.90
14061;DHT22;7105;43.616;1.434;2022-12-18T09:57:31;9.20;99.90
14061;DHT22;7105;43.616;1.434;2022-12-18T10:00:23;9.30;99.90
14061;DHT22;7105;43.616;1.434;2022-12-18T10:02:56;9.30;99.90
14061;DHT22;7105;43.616;1.434;2022-12-18T10:09:10;9.40;99.90
14061;DHT22;7105;43.616;1.434;2022-12-18T10:16:57;9.50;99.90
14061;DHT22;7105;43.616;1.434;2022-12-18T10:22:02;9.70;99.90
14061;DHT22;7105;43.616;1.434;2022-12-18T10:24:38;9.60;99.90
14061;DHT22;7105;43.616;1.434;2022-12-18T10:27:17;9.70;99.90
14061;DHT22;7105;43.616;1.434;2022-12-18T10:29:45;9.70;99.90
14061;DHT22;7105;43.616;1.434;2022-12-18T10:32:22;9.70;99.90
14061;DHT22;7105;43.616;1.434;2022-12-18T10:34:49;9.60;99.90
14061;DHT22;7105;43.616;1.434;2022-12-18T10:37:18;9.80;99.90
14061;DHT22;7105;43.616;1.434;2022-12-18T10:39:46;9.80;99.90
14061;DHT22;7105;43.616;1.434;2022-12-18T10:42:21;9.80;99.90
14061;DHT22;7105;43.616;1.434;2022-12-18T10:45:02;9.70;99.90
14061;DHT22;7105;43.616;1.434;2022-12-18T10:47:28;9.70;99.90
14061;DHT22;7105;43.616;1.434;2022-12-18T10:49:54;9.80;99.90
14061;DHT22;7105;43.616;1.434;2022-12-18T10:52:22;9.80;99.90
14061;DHT22;7105;43.616;1.434;2022-12-18T10:55:02;9.80;99.90
14061;DHT22;7105;43.616;1.434;2022-12-18T10:57:37;9.60;99.90
14061;DHT22;7105;43.616;1.434;2022-12-18T11:02:49;9.80;99.90
14061;DHT22;7105;43.616;1.434;2022-12-18T11:05:35;9.80;99.90
14061;DHT22;7105;43.616;1.434;2022-12-18T11:08:03;9.80;99.90
14061;DHT22;7105;43.616;1.434;2022-12-18T11:10:38;9.90;99.90
14061;DHT22;7105;43.616;1.434;2022-12-18T11:13:32;10.00;99.90
14061;DHT22;7105;43.616;1.434;2022-12-18T11:15:58;10.00;99.90
14061;DHT22;7105;43.616;1.434;2022-12-18T11:18:34;10.00;99.90
14061;DHT22;7105;43.616;1.434;2022-12-18T11:23:26;10.10;99.90
14061;DHT22;7105;43.616;1.434;2022-12-18T11:25:58;10.20;99.90
14061;DHT22;7105;43.616;1.434;2022-12-18T11:28:35;10.20;99.90
14061;DHT22;7105;43.616;1.434;2022-12-18T11:31:28;10.20;99.90
14061;DHT22;7105;43.616;1.434;2022-12-18T11:34:13;10.20;99.90
14061;DHT22;7105;43.616;1.434;2022-12-18T11:36:45;10.20;99.90
14061;DHT22;7105;43.616;1.434;2022-12-18T11:47:58;10.40;99.90
14061;DHT22;7105;43.616;1.434;2022-12-18T11:50:47;10.40;99.90
14061;DHT22;7105;43.616;1.434;2022-12-18T11:53:14;10.30;99.90
14061;DHT22;7105;43.616;1.434;2022-12-18T12:01:49;10.40;99.90
14061;DHT22;7105;43.616;1.434;2022-12-18T12:05:00;10.50;99.90
14061;DHT22;7105;43.616;1.434;2022-12-18T12:08:06;10.40;99.90
14061;DHT22;7105;43.616;1.434;2022-12-18T12:16:28;10.60;99.90
14061;DHT22;7105;43.616;1.434;2022-12-18T12:19:15;10.60;99.90
14061;DHT22;7105;43.616;1.434;2022-12-18T12:21:58;10.90;99.90
14061;DHT22;7105;43.616;1.434;2022-12-18T12:38:06;10.90;99.90
14061;DHT22;7105;43.616;1.434;2022-12-18T12:40:38;11.00;99.90
14061;DHT22;7105;43.616;1.434;2022-12-18T12:50:57;11.10;99.90
14061;DHT22;7105;43.616;1.434;2022-12-18T12:53:30;11.00;99.90
14061;DHT22;7105;43.616;1.434;2022-12-18T12:55:58;10.90;99.90
14061;DHT22;7105;43.616;1.434;2022-12-18T12:58:39;10.90;99.90
14061;DHT22;7105;43.616;1.434;2022-12-18T13:06:57;11.10;99.90
14061;DHT22;7105;43.616;1.434;2022-12-18T13:09:24;11.10;99.90
14061;DHT22;7105;43.616;1.434;2022-12-18T13:11:50;11.10;99.90
14061;DHT22;7105;43.616;1.434;2022-12-18T13:14:35;11.10;99.90
14061;DHT22;7105;43.616;1.434;2022-12-18T13:19:50;11.30;99.90
14061;DHT22;7105;43.616;1.434;2022-12-18T13:22:30;11.20;99.90
14061;DHT22;7105;43.616;1.434;2022-12-18T13:24:56;11.20;99.90
14061;DHT22;7105;43.616;1.434;2022-12-18T13:36:25;11.20;99.90
14061;DHT22;7105;43.616;1.434;2022-12-18T13:44:59;11.50;99.90
14061;DHT22;7105;43.616;1.434;2022-12-18T13:47:36;11.30;99.90
14061;DHT22;7105;43.616;1.434;2022-12-18T13:50:13;11.20;99.90
14061;DHT22;7105;43.616;1.434;2022-12-18T13:52:45;11.50;99.90
14061;DHT22;7105;43.616;1.434;2022-12-18T13:55:17;11.60;99.90
14061;DHT22;7105;43.616;1.434;2022-12-18T13:57:43;11.40;99.90
14061;DHT22;7105;43.616;1.434;2022-12-18T14:02:50;11.40;99.90
14061;DHT22;7105;43.616;1.434;2022-12-18T14:05:27;11.60;99.90
14061;DHT22;7105;43.616;1.434;2022-12-18T14:07:54;11.50;99.90
14061;DHT22;7105;43.616;1.434;2022-12-18T14:10:25;11.40;99.90
14061;DHT22;7105;43.616;1.434;2022-12-18T14:12:51;11.40;99.90
14061;DHT22;7105;43.616;1.434;2022-12-18T14:20:21;11.60;99.90
14061;DHT22;7105;43.616;1.434;2022-12-18T14:22:49;11.50;99.90
14061;DHT22;7105;43.616;1.434;2022-12-18T14:27:48;11.60;99.90
14061;DHT22;7105;43.616;1.434;2022-12-18T14:30:25;11.80;99.90
14061;DHT22;7105;43.616;1.434;2022-12-18T14:33:10;11.60;99.90
14061;DHT22;7105;43.616;1.434;2022-12-18T14:38:37;11.60;99.90
14061;DHT22;7105;43.616;1.434;2022-12-18T14:41:06;11.80;99.90
14061;DHT22;7105;43.616;1.434;2022-12-18T14:43:34;11.70;99.90
14061;DHT22;7105;43.616;1.434;2022-12-18T14:46:01;11.50;99.90
14061;DHT22;7105;43.616;1.434;2022-12-18T14:48:41;11.50;99.90
14061;DHT22;7105;43.616;1.434;2022-12-18T14:54:05;11.80;99.90
14061;DHT22;7105;43.616;1.434;2022-12-18T14:56:36;11.50;99.90
14061;DHT22;7105;43.616;1.434;2022-12-18T14:59:05;11.50;99.90
14061;DHT22;7105;43.616;1.434;2022-12-18T15:01:44;11.60;99.90
14061;DHT22;7105;43.616;1.434;2022-12-18T15:04:33;11.70;99.90
14061;DHT22;7105;43.616;1.434;2022-12-18T15:12:36;11.30;99.90
14061;DHT22;7105;43.616;1.434;2022-12-18T15:15:02;11.60;99.90
14061;DHT22;7105;43.616;1.434;2022-12-18T15:17:28;11.50;99.90
14061;DHT22;7105;43.616;1.434;2022-12-18T15:20:09;11.40;99.90
14061;DHT22;7105;43.616;1.434;2022-12-18T15:22:36;11.30;99.90
14061;DHT22;7105;43.616;1.434;2022-12-18T15:25:16;11.50;99.90
14061;DHT22;7105;43.616;1.434;2022-12-18T15:27:48;11.50;99.90
14061;DHT22;7105;43.616;1.434;2022-12-18T15:30:19;11.30;99.90
14061;DHT22;7105;43.616;1.434;2022-12-18T15:32:46;11.20;99.90
14061;DHT22;7105;43.616;1.434;2022-12-18T15:35:25;11.20;99.90
14061;DHT22;7105;43.616;1.434;2022-12-18T15:37:51;11.30;99.90
14061;DHT22;7105;43.616;1.434;2022-12-18T15:40:26;11.30;99.90
14061;DHT22;7105;43.616;1.434;2022-12-18T15:42:53;11.10;99.90
14061;DHT22;7105;43.616;1.434;2022-12-18T15:45:38;11.00;99.90
14061;DHT22;7105;43.616;1.434;2022-12-18T15:48:19;11.00;99.90
14061;DHT22;7105;43.616;1.434;2022-12-18T15:50:45;11.10;99.90
14061;DHT22;7105;43.616;1.434;2022-12-18T15:53:11;10.80;99.90
14061;DHT22;7105;43.616;1.434;2022-12-18T15:55:37;10.80;99.90
14061;DHT22;7105;43.616;1.434;2022-12-18T15:58:21;10.80;99.90
14061;DHT22;7105;43.616;1.434;2022-12-18T16:00:47;10.90;99.90
14061;DHT22;7105;43.616;1.434;2022-12-18T16:03:13;10.80;99.90
14061;DHT22;7105;43.616;1.434;2022-12-18T16:05:38;10.60;99.90
14061;DHT22;7105;43.616;1.434;2022-12-18T16:08:04;10.60;99.90
14061;DHT22;7105;43.616;1.434;2022-12-18T16:10:30;10.60;99.90
14061;DHT22;7105;43.616;1.434;2022-12-18T16:12:56;10.70;99.90
14061;DHT22;7105;43.616;1.434;2022-12-18T16:15:21;10.70;99.90
14061;DHT22;7105;43.616;1.434;2022-12-18T16:17:47;10.60;99.90
14061;DHT22;7105;43.616;1.434;2022-12-18T16:20:15;10.40;99.90
14061;DHT22;7105;43.616;1.434;2022-12-18T16:22:42;10.40;99.90
14061;DHT22;7105;43.616;1.434;2022-12-18T16:25:25;10.50;99.90
14061;DHT22;7105;43.616;1.434;2022-12-18T16:27:52;10.40;99.90
14061;DHT22;7105;43.616;1.434;2022-12-18T16:30:20;10.30;99.90
14061;DHT22;7105;43.616;1.434;2022-12-18T16:32:46;10.20;99.90
14061;DHT22;7105;43.616;1.434;2022-12-18T16:35:14;10.30;99.90
14061;DHT22;7105;43.616;1.434;2022-12-18T16:37:40;10.50;99.90
14061;DHT22;7105;43.616;1.434;2022-12-18T16:40:10;10.40;99.90
14061;DHT22;7105;43.616;1.434;2022-12-18T16:42:38;10.20;99.90
14061;DHT22;7105;43.616;1.434;2022-12-18T16:45:04;10.20;99.90
14061;DHT22;7105;43.616;1.434;2022-12-18T16:47:30;10.30;99.90
14061;DHT22;7105;43.616;1.434;2022-12-18T16:49:56;10.50;99.90
14061;DHT22;7105;43.616;1.434;2022-12-18T16:52:23;10.30;99.90
14061;DHT22;7105;43.616;1.434;2022-12-18T16:54:49;10.30;99.90
14061;DHT22;7105;43.616;1.434;2022-12-18T16:57:16;10.20;99.90
14061;DHT22;7105;43.616;1.434;2022-12-18T16:59:42;10.40;99.90
14061;DHT22;7105;43.616;1.434;2022-12-18T17:02:14;10.30;99.90
14061;DHT22;7105;43.616;1.434;2022-12-18T17:04:40;10.30;99.90
14061;DHT22;7105;43.616;1.434;2022-12-18T17:07:06;10.10;99.90
14061;DHT22;7105;43.616;1.434;2022-12-18T17:09:32;10.30;99.90
14061;DHT22;7105;43.616;1.434;2022-12-18T17:11:58;10.30;99.90
14061;DHT22;7105;43.616;1.434;2022-12-18T17:14:25;10.30;99.90
14061;DHT22;7105;43.616;1.434;2022-12-18T17:16:54;10.10;99.90
14061;DHT22;7105;43.616;1.434;2022-12-18T17:19:21;10.10;99.90
14061;DHT22;7105;43.616;1.434;2022-12-18T17:21:49;10.60;99.90
14061;DHT22;7105;43.616;1.434;2022-12-18T17:24:15;10.60;99.90
14061;DHT22;7105;43.616;1.434;2022-12-18T17:26:41;10.30;99.90
14061;DHT22;7105;43.616;1.434;2022-12-18T17:29:07;10.30;99.90
14061;DHT22;7105;43.616;1.434;2022-12-18T17:31:34;10.30;99.90
14061;DHT22;7105;43.616;1.434;2022-12-18T17:34:03;10.50;99.90
14061;DHT22;7105;43.616;1.434;2022-12-18T17:36:28;10.60;99.90
14061;DHT22;7105;43.616;1.434;2022-12-18T17:38:58;10.40;99.90
14061;DHT22;7105;43.616;1.434;2022-12-18T17:41:25;10.40;99.90
14061;DHT22;7105;43.616;1.434;2022-12-18T17:46:18;10.60;99.90
14061;DHT22;7105;43.616;1.434;2022-12-18T17:48:44;10.50;99.90
14061;DHT22;7105;43.616;1.434;2022-12-18T17:51:10;10.60;99.90
14061;DHT22;7105;43.616;1.434;2022-12-18T17:53:36;10.50;99.90
14061;DHT22;7105;43.616;1.434;2022-12-18T17:56:04;10.80;99.90
14061;DHT22;7105;43.616;1.434;2022-12-18T17:58:31;11.00;99.90
14061;DHT22;7105;43.616;1.434;2022-12-18T18:00:57;10.80;99.90
14061;DHT22;7105;43.616;1.434;2022-12-18T18:03:23;10.70;99.90
14061;DHT22;7105;43.616;1.434;2022-12-18T18:05:54;10.90;99.90
14061;DHT22;7105;43.616;1.434;2022-12-18T18:08:20;10.90;99.90
14061;DHT22;7105;43.616;1.434;2022-12-18T18:10:46;10.90;99.90
14061;DHT22;7105;43.616;1.434;2022-12-18T18:13:31;10.90;99.90
14061;DHT22;7105;43.616;1.434;2022-12-18T18:16:15;10.90;99.90
14061;DHT22;7105;43.616;1.434;2022-12-18T18:18:40;11.00;99.90
14061;DHT22;7105;43.616;1.434;2022-12-18T18:21:07;10.90;99.90
14061;DHT22;7105;43.616;1.434;2022-12-18T18:23:34;10.90;99.90
14061;DHT22;7105;43.616;1.434;2022-12-18T18:26:07;10.80;99.90
14061;DHT22;7105;43.616;1.434;2022-12-18T18:28:34;11.00;99.90